KBUF/BUF METAR and TAF weather

Enter ICAO airport designator
Station Type Date Time Source
KBUF METAR 2018/10/19 14:54 UTC NOAA

KBUF 191454Z 22019G29KT 10SM FEW021 SCT160 BKN260 12/06 A3010 RMK AO2 PK WND 22029/1454 SLP195 T01170056 58020


Station Type Date Time Source
KBUF Decoded METAR 2018/10/19 14:54 UTC NOAA

GREATER BUFFALO INTERNATIONAL AIRPORT , NY, United States (KBUF) 42-56N 078-44W 225M
Oct 19, 2018 - 10:54 AM EDT / 2018.10.19 1454 UTC
Wind: from the SW (220 degrees) at 22 MPH (19 KT) gusting to 33 MPH (29 KT):0
Visibility: 10 mile(s):0
Sky conditions: mostly cloudy
Temperature: 53.1 F (11.7 C)
Dew Point: 42.1 F (5.6 C)
Relative Humidity: 66%
Pressure (altimeter): 30.1 in. Hg (1019 hPa)
Pressure tendency: 0.06 inches (2.0 hPa) lower than three hours ago
ob: KBUF 191454Z 22019G29KT 10SM FEW021 SCT160 BKN260 12/06 A3010 RMK AO2 PK WND 22029/1454 SLP195 T01170056 58020
cycle: 15

Station Type Date Time Source
KBUF TAF 2018/10/19 15:57 UTC NOAA

TAF
AMD KBUF 191454Z 1915/2012 21015G24KT P6SM FEW021 SCT250
FM192300 22013G21KT P6SM OVC110
FM200200 22017G25KT P6SM OVC070
FM200400 22020G30KT P6SM OVC035
FM200800 24018G31KT P6SM VCSH OVC015


Example: see airport list